sensor_id;sensor_type;location;lat;lon;timestamp;P1;durP1;ratioP1;P2;durP2;ratioP2
68858;SDS011;55864;49.238;8.092;2023-02-27T00:00:24;8.20;;;2.30;;
68858;SDS011;55864;49.238;8.092;2023-02-27T00:02:24;9.17;;;2.13;;
68858;SDS011;55864;49.238;8.092;2023-02-27T00:04:25;7.37;;;2.33;;
68858;SDS011;55864;49.238;8.092;2023-02-27T00:06:27;6.30;;;2.00;;
68858;SDS011;55864;49.238;8.092;2023-02-27T00:08:28;5.63;;;1.90;;
68858;SDS011;55864;49.238;8.092;2023-02-27T00:10:28;6.30;;;1.70;;
68858;SDS011;55864;49.238;8.092;2023-02-27T00:12:29;4.67;;;1.50;;
68858;SDS011;55864;49.238;8.092;2023-02-27T00:14:30;4.40;;;1.40;;
68858;SDS011;55864;49.238;8.092;2023-02-27T00:16:30;6.70;;;1.73;;
68858;SDS011;55864;49.238;8.092;2023-02-27T00:18:31;3.40;;;1.20;;
68858;SDS011;55864;49.238;8.092;2023-02-27T00:20:31;6.40;;;1.70;;
68858;SDS011;55864;49.238;8.092;2023-02-27T00:22:33;5.57;;;1.40;;
68858;SDS011;55864;49.238;8.092;2023-02-27T00:24:34;4.83;;;1.30;;
68858;SDS011;55864;49.238;8.092;2023-02-27T00:26:35;3.53;;;1.37;;
68858;SDS011;55864;49.238;8.092;2023-02-27T00:28:35;6.67;;;1.93;;
68858;SDS011;55864;49.238;8.092;2023-02-27T00:30:37;4.87;;;1.40;;
68858;SDS011;55864;49.238;8.092;2023-02-27T00:32:38;4.10;;;1.50;;
68858;SDS011;55864;49.238;8.092;2023-02-27T00:34:39;4.93;;;1.37;;
68858;SDS011;55864;49.238;8.092;2023-02-27T00:36:39;5.30;;;1.60;;
68858;SDS011;55864;49.238;8.092;2023-02-27T00:38:41;6.73;;;2.00;;
68858;SDS011;55864;49.238;8.092;2023-02-27T00:40:41;5.63;;;1.50;;
68858;SDS011;55864;49.238;8.092;2023-02-27T00:42:42;4.87;;;1.40;;
68858;SDS011;55864;49.238;8.092;2023-02-27T00:44:43;5.80;;;1.80;;
68858;SDS011;55864;49.238;8.092;2023-02-27T00:46:43;7.57;;;1.83;;
68858;SDS011;55864;49.238;8.092;2023-02-27T00:48:45;5.93;;;1.60;;
68858;SDS011;55864;49.238;8.092;2023-02-27T00:50:45;6.73;;;1.80;;
68858;SDS011;55864;49.238;8.092;2023-02-27T00:52:46;7.33;;;1.80;;
68858;SDS011;55864;49.238;8.092;2023-02-27T00:54:48;4.43;;;1.50;;
68858;SDS011;55864;49.238;8.092;2023-02-27T00:56:49;5.03;;;1.57;;
68858;SDS011;55864;49.238;8.092;2023-02-27T00:58:49;4.47;;;1.50;;
68858;SDS011;55864;49.238;8.092;2023-02-27T01:00:50;4.83;;;1.57;;
68858;SDS011;55864;49.238;8.092;2023-02-27T01:02:50;5.23;;;1.67;;
68858;SDS011;55864;49.238;8.092;2023-02-27T01:04:51;7.77;;;1.80;;
68858;SDS011;55864;49.238;8.092;2023-02-27T01:06:51;7.50;;;1.80;;
68858;SDS011;55864;49.238;8.092;2023-02-27T01:08:52;5.97;;;1.63;;
68858;SDS011;55864;49.238;8.092;2023-02-27T01:10:54;6.60;;;1.60;;
68858;SDS011;55864;49.238;8.092;2023-02-27T01:12:55;5.27;;;1.80;;
68858;SDS011;55864;49.238;8.092;2023-02-27T01:14:55;7.03;;;1.70;;
68858;SDS011;55864;49.238;8.092;2023-02-27T01:16:56;3.87;;;1.50;;
68858;SDS011;55864;49.238;8.092;2023-02-27T01:18:57;5.13;;;1.70;;
68858;SDS011;55864;49.238;8.092;2023-02-27T01:20:57;5.17;;;1.43;;
68858;SDS011;55864;49.238;8.092;2023-02-27T01:22:58;5.50;;;1.70;;
68858;SDS011;55864;49.238;8.092;2023-02-27T01:24:58;6.87;;;2.00;;
68858;SDS011;55864;49.238;8.092;2023-02-27T01:27:00;5.90;;;1.70;;
68858;SDS011;55864;49.238;8.092;2023-02-27T01:29:01;6.57;;;1.80;;
68858;SDS011;55864;49.238;8.092;2023-02-27T01:31:01;6.93;;;1.77;;
68858;SDS011;55864;49.238;8.092;2023-02-27T01:33:02;6.63;;;1.67;;
68858;SDS011;55864;49.238;8.092;2023-02-27T01:35:03;6.40;;;1.83;;
68858;SDS011;55864;49.238;8.092;2023-02-27T01:37:04;5.50;;;1.60;;
68858;SDS011;55864;49.238;8.092;2023-02-27T01:39:05;5.43;;;1.70;;
68858;SDS011;55864;49.238;8.092;2023-02-27T01:41:06;6.20;;;1.63;;
68858;SDS011;55864;49.238;8.092;2023-02-27T01:43:11;6.80;;;1.80;;
68858;SDS011;55864;49.238;8.092;2023-02-27T01:45:25;6.30;;;1.70;;
68858;SDS011;55864;49.238;8.092;2023-02-27T01:47:30;7.50;;;1.80;;
68858;SDS011;55864;49.238;8.092;2023-02-27T01:49:32;4.80;;;1.53;;
68858;SDS011;55864;49.238;8.092;2023-02-27T01:51:35;5.13;;;1.63;;
68858;SDS011;55864;49.238;8.092;2023-02-27T01:53:39;5.30;;;1.60;;
68858;SDS011;55864;49.238;8.092;2023-02-27T01:55:45;4.60;;;1.50;;
68858;SDS011;55864;49.238;8.092;2023-02-27T01:57:48;4.75;;;1.70;;
68858;SDS011;55864;49.238;8.092;2023-02-27T01:59:51;8.83;;;2.03;;
68858;SDS011;55864;49.238;8.092;2023-02-27T02:01:52;6.40;;;1.70;;
68858;SDS011;55864;49.238;8.092;2023-02-27T02:03:54;4.73;;;1.40;;
68858;SDS011;55864;49.238;8.092;2023-02-27T02:06:00;4.33;;;1.50;;
68858;SDS011;55864;49.238;8.092;2023-02-27T02:08:02;5.97;;;1.70;;
68858;SDS011;55864;49.238;8.092;2023-02-27T02:10:03;5.40;;;1.50;;
68858;SDS011;55864;49.238;8.092;2023-02-27T02:12:05;6.23;;;1.70;;
68858;SDS011;55864;49.238;8.092;2023-02-27T02:14:07;6.43;;;1.90;;
68858;SDS011;55864;49.238;8.092;2023-02-27T02:16:13;4.47;;;1.60;;
68858;SDS011;55864;49.238;8.092;2023-02-27T02:18:23;6.63;;;1.60;;
68858;SDS011;55864;49.238;8.092;2023-02-27T02:23:19;6.97;;;1.80;;
68858;SDS011;55864;49.238;8.092;2023-02-27T02:28:26;6.57;;;1.73;;
68858;SDS011;55864;49.238;8.092;2023-02-27T02:30:58;5.93;;;1.60;;
68858;SDS011;55864;49.238;8.092;2023-02-27T02:36:26;3.93;;;1.47;;
68858;SDS011;55864;49.238;8.092;2023-02-27T02:38:54;4.77;;;1.67;;
68858;SDS011;55864;49.238;8.092;2023-02-27T02:41:03;5.30;;;1.40;;
68858;SDS011;55864;49.238;8.092;2023-02-27T02:43:11;4.53;;;1.50;;
68858;SDS011;55864;49.238;8.092;2023-02-27T02:45:19;7.03;;;1.83;;
68858;SDS011;55864;49.238;8.092;2023-02-27T02:47:29;8.00;;;1.60;;
68858;SDS011;55864;49.238;8.092;2023-02-27T02:49:36;7.67;;;1.90;;
68858;SDS011;55864;49.238;8.092;2023-02-27T02:51:46;5.67;;;1.60;;
68858;SDS011;55864;49.238;8.092;2023-02-27T02:53:54;8.80;;;2.20;;
68858;SDS011;55864;49.238;8.092;2023-02-27T02:56:04;6.43;;;1.70;;
68858;SDS011;55864;49.238;8.092;2023-02-27T02:58:11;8.67;;;1.80;;
68858;SDS011;55864;49.238;8.092;2023-02-27T03:00:17;4.10;;;1.37;;
68858;SDS011;55864;49.238;8.092;2023-02-27T03:02:22;6.37;;;1.70;;
68858;SDS011;55864;49.238;8.092;2023-02-27T03:04:28;5.10;;;1.57;;
68858;SDS011;55864;49.238;8.092;2023-02-27T03:06:37;6.23;;;1.40;;
68858;SDS011;55864;49.238;8.092;2023-02-27T03:08:42;5.30;;;1.67;;
68858;SDS011;55864;49.238;8.092;2023-02-27T03:10:50;4.73;;;1.50;;
68858;SDS011;55864;49.238;8.092;2023-02-27T03:12:58;6.83;;;1.50;;
68858;SDS011;55864;49.238;8.092;2023-02-27T03:15:02;8.20;;;1.93;;
68858;SDS011;55864;49.238;8.092;2023-02-27T03:17:09;4.17;;;1.30;;
68858;SDS011;55864;49.238;8.092;2023-02-27T03:19:17;4.77;;;1.60;;
68858;SDS011;55864;49.238;8.092;2023-02-27T03:21:24;4.87;;;1.90;;
68858;SDS011;55864;49.238;8.092;2023-02-27T03:23:29;7.97;;;1.67;;
68858;SDS011;55864;49.238;8.092;2023-02-27T03:25:36;6.80;;;2.03;;
68858;SDS011;55864;49.238;8.092;2023-02-27T03:27:42;5.93;;;1.63;;
68858;SDS011;55864;49.238;8.092;2023-02-27T03:29:48;5.60;;;1.50;;
68858;SDS011;55864;49.238;8.092;2023-02-27T03:31:54;5.10;;;1.60;;
68858;SDS011;55864;49.238;8.092;2023-02-27T03:33:58;4.93;;;1.50;;
68858;SDS011;55864;49.238;8.092;2023-02-27T03:36:09;4.80;;;1.60;;
68858;SDS011;55864;49.238;8.092;2023-02-27T03:38:16;4.17;;;1.43;;
68858;SDS011;55864;49.238;8.092;2023-02-27T03:40:24;6.80;;;1.70;;
68858;SDS011;55864;49.238;8.092;2023-02-27T03:42:30;5.53;;;1.60;;
68858;SDS011;55864;49.238;8.092;2023-02-27T03:45:14;6.27;;;1.80;;
68858;SDS011;55864;49.238;8.092;2023-02-27T03:47:20;7.57;;;1.97;;
68858;SDS011;55864;49.238;8.092;2023-02-27T03:49:21;6.07;;;1.83;;
68858;SDS011;55864;49.238;8.092;2023-02-27T03:51:23;6.57;;;1.80;;
68858;SDS011;55864;49.238;8.092;2023-02-27T03:53:26;5.77;;;1.63;;
68858;SDS011;55864;49.238;8.092;2023-02-27T03:55:31;5.37;;;1.67;;
68858;SDS011;55864;49.238;8.092;2023-02-27T03:57:35;6.23;;;1.70;;
68858;SDS011;55864;49.238;8.092;2023-02-27T03:59:37;5.17;;;1.53;;
68858;SDS011;55864;49.238;8.092;2023-02-27T04:01:39;5.87;;;1.70;;
68858;SDS011;55864;49.238;8.092;2023-02-27T04:05:49;5.87;;;1.70;;
68858;SDS011;55864;49.238;8.092;2023-02-27T04:07:53;5.90;;;1.63;;
68858;SDS011;55864;49.238;8.092;2023-02-27T04:12:17;4.90;;;1.30;;
68858;SDS011;55864;49.238;8.092;2023-02-27T04:14:38;5.10;;;1.40;;
68858;SDS011;55864;49.238;8.092;2023-02-27T04:16:54;4.10;;;1.50;;
68858;SDS011;55864;49.238;8.092;2023-02-27T04:19:12;5.07;;;1.60;;
68858;SDS011;55864;49.238;8.092;2023-02-27T04:21:19;8.20;;;1.70;;
68858;SDS011;55864;49.238;8.092;2023-02-27T04:23:45;5.90;;;1.63;;
68858;SDS011;55864;49.238;8.092;2023-02-27T04:25:59;4.00;;;1.30;;
68858;SDS011;55864;49.238;8.092;2023-02-27T04:28:12;3.70;;;1.30;;
68858;SDS011;55864;49.238;8.092;2023-02-27T04:30:16;5.57;;;1.50;;
68858;SDS011;55864;49.238;8.092;2023-02-27T04:32:25;5.70;;;1.50;;
68858;SDS011;55864;49.238;8.092;2023-02-27T04:34:33;4.90;;;1.30;;
68858;SDS011;55864;49.238;8.092;2023-02-27T04:36:39;3.40;;;1.23;;
68858;SDS011;55864;49.238;8.092;2023-02-27T04:38:44;3.03;;;1.20;;
68858;SDS011;55864;49.238;8.092;2023-02-27T04:40:48;5.57;;;1.67;;
68858;SDS011;55864;49.238;8.092;2023-02-27T04:42:54;5.60;;;1.60;;
68858;SDS011;55864;49.238;8.092;2023-02-27T04:44:57;6.05;;;1.80;;
68858;SDS011;55864;49.238;8.092;2023-02-27T04:47:02;5.30;;;1.67;;
68858;SDS011;55864;49.238;8.092;2023-02-27T04:49:07;5.22;;;1.50;;
68858;SDS011;55864;49.238;8.092;2023-02-27T04:51:11;4.97;;;1.40;;
68858;SDS011;55864;49.238;8.092;2023-02-27T04:55:19;4.38;;;1.50;;
68858;SDS011;55864;49.238;8.092;2023-02-27T04:57:26;5.97;;;1.70;;
68858;SDS011;55864;49.238;8.092;2023-02-27T04:59:31;6.17;;;1.47;;
68858;SDS011;55864;49.238;8.092;2023-02-27T05:01:37;5.80;;;1.80;;
68858;SDS011;55864;49.238;8.092;2023-02-27T05:03:41;6.07;;;1.40;;
68858;SDS011;55864;49.238;8.092;2023-02-27T05:05:47;4.37;;;1.40;;
68858;SDS011;55864;49.238;8.092;2023-02-27T05:07:51;4.57;;;1.40;;
68858;SDS011;55864;49.238;8.092;2023-02-27T05:09:57;4.53;;;1.43;;
68858;SDS011;55864;49.238;8.092;2023-02-27T05:12:02;5.57;;;1.43;;
68858;SDS011;55864;49.238;8.092;2023-02-27T05:14:10;4.80;;;1.50;;
68858;SDS011;55864;49.238;8.092;2023-02-27T05:16:16;9.33;;;1.73;;
68858;SDS011;55864;49.238;8.092;2023-02-27T05:18:21;3.93;;;1.30;;
68858;SDS011;55864;49.238;8.092;2023-02-27T05:20:22;5.77;;;1.57;;
68858;SDS011;55864;49.238;8.092;2023-02-27T05:22:31;6.53;;;1.80;;
68858;SDS011;55864;49.238;8.092;2023-02-27T05:24:40;4.77;;;1.60;;
68858;SDS011;55864;49.238;8.092;2023-02-27T05:26:59;4.83;;;1.60;;
68858;SDS011;55864;49.238;8.092;2023-02-27T05:29:09;5.83;;;1.50;;
68858;SDS011;55864;49.238;8.092;2023-02-27T05:31:19;5.37;;;1.60;;
68858;SDS011;55864;49.238;8.092;2023-02-27T05:33:26;5.97;;;1.70;;
68858;SDS011;55864;49.238;8.092;2023-02-27T05:35:31;6.27;;;1.70;;
68858;SDS011;55864;49.238;8.092;2023-02-27T05:37:39;4.93;;;1.40;;
68858;SDS011;55864;49.238;8.092;2023-02-27T05:39:44;6.03;;;1.70;;
68858;SDS011;55864;49.238;8.092;2023-02-27T05:41:47;4.47;;;1.50;;
68858;SDS011;55864;49.238;8.092;2023-02-27T05:43:52;4.57;;;1.30;;
68858;SDS011;55864;49.238;8.092;2023-02-27T05:45:59;4.70;;;1.40;;
68858;SDS011;55864;49.238;8.092;2023-02-27T05:48:06;4.50;;;1.50;;
68858;SDS011;55864;49.238;8.092;2023-02-27T05:50:10;4.53;;;1.40;;
68858;SDS011;55864;49.238;8.092;2023-02-27T05:52:13;6.22;;;1.73;;
68858;SDS011;55864;49.238;8.092;2023-02-27T05:54:21;6.60;;;1.60;;
68858;SDS011;55864;49.238;8.092;2023-02-27T05:56:28;3.80;;;1.40;;
68858;SDS011;55864;49.238;8.092;2023-02-27T05:58:32;5.28;;;1.35;;
68858;SDS011;55864;49.238;8.092;2023-02-27T06:00:37;5.70;;;1.50;;
68858;SDS011;55864;49.238;8.092;2023-02-27T06:02:42;6.97;;;1.60;;
68858;SDS011;55864;49.238;8.092;2023-02-27T06:04:45;5.13;;;1.38;;
68858;SDS011;55864;49.238;8.092;2023-02-27T06:06:46;3.97;;;1.20;;
68858;SDS011;55864;49.238;8.092;2023-02-27T06:08:47;4.80;;;1.50;;
68858;SDS011;55864;49.238;8.092;2023-02-27T06:10:49;5.23;;;1.30;;
68858;SDS011;55864;49.238;8.092;2023-02-27T06:12:50;6.07;;;1.50;;
68858;SDS011;55864;49.238;8.092;2023-02-27T06:14:50;6.87;;;1.70;;
68858;SDS011;55864;49.238;8.092;2023-02-27T06:16:51;8.40;;;2.10;;
68858;SDS011;55864;49.238;8.092;2023-02-27T06:18:51;5.90;;;1.70;;
68858;SDS011;55864;49.238;8.092;2023-02-27T06:20:52;8.53;;;2.40;;
68858;SDS011;55864;49.238;8.092;2023-02-27T06:22:53;11.87;;;2.90;;
68858;SDS011;55864;49.238;8.092;2023-02-27T06:24:53;9.50;;;2.70;;
68858;SDS011;55864;49.238;8.092;2023-02-27T06:26:55;9.07;;;2.50;;
68858;SDS011;55864;49.238;8.092;2023-02-27T06:28:56;11.40;;;2.70;;
68858;SDS011;55864;49.238;8.092;2023-02-27T06:30:56;13.30;;;2.60;;
68858;SDS011;55864;49.238;8.092;2023-02-27T06:32:57;9.13;;;3.27;;
68858;SDS011;55864;49.238;8.092;2023-02-27T06:34:57;9.57;;;3.10;;
68858;SDS011;55864;49.238;8.092;2023-02-27T06:36:58;8.63;;;2.80;;
68858;SDS011;55864;49.238;8.092;2023-02-27T06:38:58;9.50;;;2.80;;
68858;SDS011;55864;49.238;8.092;2023-02-27T06:40:59;8.90;;;2.43;;
68858;SDS011;55864;49.238;8.092;2023-02-27T06:43:00;8.60;;;2.57;;
68858;SDS011;55864;49.238;8.092;2023-02-27T06:45:01;8.23;;;2.70;;
68858;SDS011;55864;49.238;8.092;2023-02-27T06:47:02;7.17;;;2.47;;
68858;SDS011;55864;49.238;8.092;2023-02-27T06:49:02;8.17;;;2.30;;
68858;SDS011;55864;49.238;8.092;2023-02-27T06:51:03;10.23;;;2.63;;
68858;SDS011;55864;49.238;8.092;2023-02-27T06:53:04;7.57;;;2.53;;
68858;SDS011;55864;49.238;8.092;2023-02-27T06:55:05;5.40;;;1.93;;
68858;SDS011;55864;49.238;8.092;2023-02-27T06:57:07;6.50;;;2.13;;
68858;SDS011;55864;49.238;8.092;2023-02-27T06:59:09;11.47;;;2.37;;
68858;SDS011;55864;49.238;8.092;2023-02-27T07:01:09;6.13;;;2.07;;
68858;SDS011;55864;49.238;8.092;2023-02-27T07:03:10;6.17;;;1.80;;
68858;SDS011;55864;49.238;8.092;2023-02-27T07:05:11;5.10;;;1.80;;
68858;SDS011;55864;49.238;8.092;2023-02-27T07:07:12;7.80;;;2.10;;
68858;SDS011;55864;49.238;8.092;2023-02-27T07:09:12;7.17;;;1.77;;
68858;SDS011;55864;49.238;8.092;2023-02-27T07:11:13;6.77;;;1.87;;
68858;SDS011;55864;49.238;8.092;2023-02-27T07:13:14;6.93;;;2.63;;
68858;SDS011;55864;49.238;8.092;2023-02-27T07:15:16;9.40;;;2.60;;
68858;SDS011;55864;49.238;8.092;2023-02-27T07:17:16;7.30;;;2.50;;
68858;SDS011;55864;49.238;8.092;2023-02-27T07:19:17;9.33;;;2.60;;
68858;SDS011;55864;49.238;8.092;2023-02-27T07:21:17;9.73;;;2.43;;
68858;SDS011;55864;49.238;8.092;2023-02-27T07:23:18;7.97;;;2.53;;
68858;SDS011;55864;49.238;8.092;2023-02-27T07:25:19;7.40;;;2.60;;
68858;SDS011;55864;49.238;8.092;2023-02-27T07:27:19;9.17;;;2.87;;
68858;SDS011;55864;49.238;8.092;2023-02-27T07:29:20;8.60;;;2.30;;
68858;SDS011;55864;49.238;8.092;2023-02-27T07:31:21;6.93;;;2.73;;
68858;SDS011;55864;49.238;8.092;2023-02-27T07:33:22;9.53;;;3.10;;
68858;SDS011;55864;49.238;8.092;2023-02-27T07:35:22;10.77;;;2.80;;
68858;SDS011;55864;49.238;8.092;2023-02-27T07:37:23;7.43;;;2.40;;
68858;SDS011;55864;49.238;8.092;2023-02-27T07:39:23;10.40;;;2.67;;
68858;SDS011;55864;49.238;8.092;2023-02-27T07:41:24;8.87;;;2.60;;
68858;SDS011;55864;49.238;8.092;2023-02-27T07:43:25;10.10;;;3.70;;
68858;SDS011;55864;49.238;8.092;2023-02-27T07:45:25;11.13;;;3.63;;
68858;SDS011;55864;49.238;8.092;2023-02-27T07:47:27;6.37;;;2.03;;
68858;SDS011;55864;49.238;8.092;2023-02-27T07:49:28;7.57;;;2.60;;
68858;SDS011;55864;49.238;8.092;2023-02-27T07:51:28;10.30;;;2.67;;
68858;SDS011;55864;49.238;8.092;2023-02-27T07:53:29;6.93;;;2.87;;
68858;SDS011;55864;49.238;8.092;2023-02-27T07:55:29;7.40;;;2.00;;
68858;SDS011;55864;49.238;8.092;2023-02-27T07:57:30;8.00;;;2.30;;
68858;SDS011;55864;49.238;8.092;2023-02-27T07:59:30;5.57;;;1.80;;
68858;SDS011;55864;49.238;8.092;2023-02-27T08:01:31;7.93;;;2.77;;
68858;SDS011;55864;49.238;8.092;2023-02-27T08:03:33;6.73;;;2.17;;
68858;SDS011;55864;49.238;8.092;2023-02-27T08:05:33;6.13;;;1.83;;
68858;SDS011;55864;49.238;8.092;2023-02-27T08:07:34;4.97;;;1.70;;
68858;SDS011;55864;49.238;8.092;2023-02-27T08:09:34;4.67;;;1.40;;
68858;SDS011;55864;49.238;8.092;2023-02-27T08:11:35;3.60;;;1.60;;
68858;SDS011;55864;49.238;8.092;2023-02-27T08:13:35;4.40;;;1.50;;
68858;SDS011;55864;49.238;8.092;2023-02-27T08:15:36;4.37;;;1.43;;
68858;SDS011;55864;49.238;8.092;2023-02-27T08:17:36;4.83;;;1.57;;
68858;SDS011;55864;49.238;8.092;2023-02-27T08:19:38;5.33;;;1.63;;
68858;SDS011;55864;49.238;8.092;2023-02-27T08:21:39;8.77;;;1.60;;
68858;SDS011;55864;49.238;8.092;2023-02-27T08:23:40;5.37;;;1.53;;
68858;SDS011;55864;49.238;8.092;2023-02-27T08:25:40;8.27;;;2.00;;
68858;SDS011;55864;49.238;8.092;2023-02-27T08:27:41;6.43;;;2.10;;
68858;SDS011;55864;49.238;8.092;2023-02-27T08:29:41;6.63;;;2.10;;
68858;SDS011;55864;49.238;8.092;2023-02-27T08:31:42;5.97;;;1.50;;
68858;SDS011;55864;49.238;8.092;2023-02-27T08:33:42;7.57;;;1.80;;
68858;SDS011;55864;49.238;8.092;2023-02-27T08:35:44;6.90;;;1.50;;
68858;SDS011;55864;49.238;8.092;2023-02-27T08:37:45;7.77;;;2.27;;
68858;SDS011;55864;49.238;8.092;2023-02-27T08:39:45;5.40;;;1.90;;
68858;SDS011;55864;49.238;8.092;2023-02-27T08:41:46;7.27;;;2.10;;
68858;SDS011;55864;49.238;8.092;2023-02-27T08:43:46;7.67;;;1.90;;
68858;SDS011;55864;49.238;8.092;2023-02-27T08:45:47;6.77;;;1.70;;
68858;SDS011;55864;49.238;8.092;2023-02-27T08:47:48;8.27;;;2.10;;
68858;SDS011;55864;49.238;8.092;2023-02-27T08:49:49;8.37;;;2.10;;
68858;SDS011;55864;49.238;8.092;2023-02-27T08:51:51;6.93;;;1.93;;
68858;SDS011;55864;49.238;8.092;2023-02-27T08:53:52;6.47;;;2.10;;
68858;SDS011;55864;49.238;8.092;2023-02-27T08:55:52;6.17;;;2.00;;
68858;SDS011;55864;49.238;8.092;2023-02-27T08:57:53;7.37;;;1.77;;
68858;SDS011;55864;49.238;8.092;2023-02-27T08:59:53;7.77;;;2.63;;
68858;SDS011;55864;49.238;8.092;2023-02-27T09:01:54;6.97;;;1.70;;
68858;SDS011;55864;49.238;8.092;2023-02-27T09:03:54;5.27;;;1.90;;
68858;SDS011;55864;49.238;8.092;2023-02-27T09:05:55;6.77;;;1.67;;
68858;SDS011;55864;49.238;8.092;2023-02-27T09:07:57;4.50;;;1.60;;
68858;SDS011;55864;49.238;8.092;2023-02-27T09:09:57;6.03;;;1.77;;
68858;SDS011;55864;49.238;8.092;2023-02-27T09:11:58;5.10;;;1.63;;
68858;SDS011;55864;49.238;8.092;2023-02-27T09:13:58;6.40;;;1.70;;
68858;SDS011;55864;49.238;8.092;2023-02-27T09:15:59;10.37;;;1.73;;
68858;SDS011;55864;49.238;8.092;2023-02-27T09:18:00;5.07;;;1.50;;
68858;SDS011;55864;49.238;8.092;2023-02-27T09:20:00;6.23;;;1.73;;
68858;SDS011;55864;49.238;8.092;2023-02-27T09:22:01;3.70;;;1.33;;
68858;SDS011;55864;49.238;8.092;2023-02-27T09:24:03;7.13;;;1.60;;
68858;SDS011;55864;49.238;8.092;2023-02-27T09:26:04;4.83;;;1.77;;
68858;SDS011;55864;49.238;8.092;2023-02-27T09:28:05;6.37;;;1.80;;
68858;SDS011;55864;49.238;8.092;2023-02-27T09:30:06;6.20;;;1.87;;
68858;SDS011;55864;49.238;8.092;2023-02-27T09:32:07;5.20;;;1.67;;
68858;SDS011;55864;49.238;8.092;2023-02-27T09:34:08;7.13;;;1.80;;
68858;SDS011;55864;49.238;8.092;2023-02-27T09:36:08;4.77;;;1.40;;
68858;SDS011;55864;49.238;8.092;2023-02-27T09:38:09;5.23;;;1.40;;
68858;SDS011;55864;49.238;8.092;2023-02-27T09:40:12;8.33;;;2.23;;
68858;SDS011;55864;49.238;8.092;2023-02-27T09:42:20;9.00;;;1.77;;
68858;SDS011;55864;49.238;8.092;2023-02-27T09:44:32;5.60;;;1.50;;
68858;SDS011;55864;49.238;8.092;2023-02-27T09:46:36;7.30;;;1.50;;
68858;SDS011;55864;49.238;8.092;2023-02-27T09:48:38;6.43;;;1.67;;
68858;SDS011;55864;49.238;8.092;2023-02-27T09:50:46;5.10;;;1.50;;
68858;SDS011;55864;49.238;8.092;2023-02-27T09:52:48;7.22;;;1.63;;
68858;SDS011;55864;49.238;8.092;2023-02-27T09:54:48;6.53;;;1.70;;
68858;SDS011;55864;49.238;8.092;2023-02-27T09:56:51;4.67;;;1.40;;
68858;SDS011;55864;49.238;8.092;2023-02-27T09:58:57;4.40;;;1.40;;
68858;SDS011;55864;49.238;8.092;2023-02-27T10:01:04;4.13;;;1.30;;
68858;SDS011;55864;49.238;8.092;2023-02-27T10:03:11;6.77;;;1.37;;
68858;SDS011;55864;49.238;8.092;2023-02-27T10:05:25;6.47;;;1.70;;
68858;SDS011;55864;49.238;8.092;2023-02-27T10:07:34;6.43;;;1.43;;
68858;SDS011;55864;49.238;8.092;2023-02-27T10:09:42;4.33;;;1.30;;
68858;SDS011;55864;49.238;8.092;2023-02-27T10:11:59;6.13;;;1.50;;
68858;SDS011;55864;49.238;8.092;2023-02-27T10:14:09;5.10;;;1.27;;
68858;SDS011;55864;49.238;8.092;2023-02-27T10:16:21;4.10;;;1.10;;
68858;SDS011;55864;49.238;8.092;2023-02-27T10:18:24;4.77;;;1.30;;
68858;SDS011;55864;49.238;8.092;2023-02-27T10:20:30;2.57;;;1.10;;
68858;SDS011;55864;49.238;8.092;2023-02-27T10:22:34;3.17;;;1.03;;
68858;SDS011;55864;49.238;8.092;2023-02-27T10:24:37;3.38;;;1.10;;
68858;SDS011;55864;49.238;8.092;2023-02-27T10:26:43;3.47;;;1.00;;
68858;SDS011;55864;49.238;8.092;2023-02-27T10:28:46;3.83;;;1.07;;
68858;SDS011;55864;49.238;8.092;2023-02-27T10:30:48;4.73;;;1.23;;
68858;SDS011;55864;49.238;8.092;2023-02-27T10:32:51;3.53;;;1.20;;
68858;SDS011;55864;49.238;8.092;2023-02-27T10:34:57;5.73;;;1.50;;
68858;SDS011;55864;49.238;8.092;2023-02-27T10:37:06;5.47;;;1.30;;
68858;SDS011;55864;49.238;8.092;2023-02-27T10:39:13;5.07;;;1.70;;
68858;SDS011;55864;49.238;8.092;2023-02-27T10:43:17;4.07;;;1.20;;
68858;SDS011;55864;49.238;8.092;2023-02-27T10:45:19;3.03;;;1.10;;
68858;SDS011;55864;49.238;8.092;2023-02-27T10:47:21;3.87;;;1.10;;
68858;SDS011;55864;49.238;8.092;2023-02-27T10:49:22;4.20;;;1.20;;
68858;SDS011;55864;49.238;8.092;2023-02-27T10:51:24;8.77;;;1.50;;
68858;SDS011;55864;49.238;8.092;2023-02-27T10:53:26;5.57;;;1.60;;
68858;SDS011;55864;49.238;8.092;2023-02-27T10:55:28;3.97;;;1.20;;
68858;SDS011;55864;49.238;8.092;2023-02-27T10:57:30;4.57;;;1.40;;
68858;SDS011;55864;49.238;8.092;2023-02-27T10:59:36;6.53;;;1.50;;
68858;SDS011;55864;49.238;8.092;2023-02-27T11:01:41;4.43;;;1.30;;
68858;SDS011;55864;49.238;8.092;2023-02-27T11:03:42;7.85;;;1.45;;
68858;SDS011;55864;49.238;8.092;2023-02-27T11:05:50;4.00;;;1.30;;
68858;SDS011;55864;49.238;8.092;2023-02-27T11:07:52;5.27;;;1.33;;
68858;SDS011;55864;49.238;8.092;2023-02-27T11:09:58;7.28;;;1.50;;
68858;SDS011;55864;49.238;8.092;2023-02-27T11:12:11;7.47;;;2.10;;
68858;SDS011;55864;49.238;8.092;2023-02-27T11:14:23;4.53;;;1.65;;
68858;SDS011;55864;49.238;8.092;2023-02-27T11:16:25;3.37;;;1.13;;
68858;SDS011;55864;49.238;8.092;2023-02-27T11:18:28;3.77;;;1.30;;
68858;SDS011;55864;49.238;8.092;2023-02-27T11:20:31;4.15;;;1.30;;
68858;SDS011;55864;49.238;8.092;2023-02-27T11:22:33;5.50;;;1.10;;
68858;SDS011;55864;49.238;8.092;2023-02-27T11:24:33;1.83;;;0.90;;
68858;SDS011;55864;49.238;8.092;2023-02-27T11:26:34;4.87;;;1.37;;
68858;SDS011;55864;49.238;8.092;2023-02-27T11:28:36;4.20;;;1.20;;
68858;SDS011;55864;49.238;8.092;2023-02-27T11:30:37;4.23;;;1.20;;
68858;SDS011;55864;49.238;8.092;2023-02-27T11:32:40;4.30;;;1.40;;
68858;SDS011;55864;49.238;8.092;2023-02-27T11:34:46;3.47;;;1.20;;
68858;SDS011;55864;49.238;8.092;2023-02-27T11:36:49;4.27;;;1.50;;
68858;SDS011;55864;49.238;8.092;2023-02-27T11:38:52;2.90;;;1.10;;
68858;SDS011;55864;49.238;8.092;2023-02-27T11:40:55;3.87;;;1.30;;
68858;SDS011;55864;49.238;8.092;2023-02-27T11:43:00;3.00;;;1.20;;
68858;SDS011;55864;49.238;8.092;2023-02-27T11:45:04;4.67;;;1.40;;
68858;SDS011;55864;49.238;8.092;2023-02-27T11:49:15;5.33;;;1.30;;
68858;SDS011;55864;49.238;8.092;2023-02-27T11:51:32;3.03;;;1.10;;
68858;SDS011;55864;49.238;8.092;2023-02-27T11:53:59;4.20;;;1.20;;
68858;SDS011;55864;49.238;8.092;2023-02-27T11:56:09;4.20;;;1.30;;
68858;SDS011;55864;49.238;8.092;2023-02-27T11:58:13;2.97;;;1.20;;
68858;SDS011;55864;49.238;8.092;2023-02-27T12:00:17;4.40;;;1.37;;
68858;SDS011;55864;49.238;8.092;2023-02-27T12:02:24;5.10;;;1.43;;
68858;SDS011;55864;49.238;8.092;2023-02-27T12:04:31;6.03;;;1.50;;
68858;SDS011;55864;49.238;8.092;2023-02-27T12:06:43;6.23;;;1.93;;
68858;SDS011;55864;49.238;8.092;2023-02-27T12:08:49;5.70;;;1.40;;
68858;SDS011;55864;49.238;8.092;2023-02-27T12:10:54;8.60;;;2.40;;
68858;SDS011;55864;49.238;8.092;2023-02-27T12:12:59;6.87;;;2.10;;
68858;SDS011;55864;49.238;8.092;2023-02-27T12:15:08;7.60;;;2.33;;
68858;SDS011;55864;49.238;8.092;2023-02-27T12:17:20;7.37;;;1.53;;
68858;SDS011;55864;49.238;8.092;2023-02-27T12:19:25;6.17;;;1.80;;
68858;SDS011;55864;49.238;8.092;2023-02-27T12:21:30;5.63;;;1.57;;
68858;SDS011;55864;49.238;8.092;2023-02-27T12:23:37;5.73;;;1.80;;
68858;SDS011;55864;49.238;8.092;2023-02-27T12:25:42;10.03;;;2.57;;
68858;SDS011;55864;49.238;8.092;2023-02-27T12:27:50;6.30;;;1.80;;
68858;SDS011;55864;49.238;8.092;2023-02-27T12:29:54;5.77;;;1.70;;
68858;SDS011;55864;49.238;8.092;2023-02-27T12:32:00;4.17;;;1.30;;
68858;SDS011;55864;49.238;8.092;2023-02-27T12:34:07;3.83;;;1.30;;
68858;SDS011;55864;49.238;8.092;2023-02-27T12:36:31;3.80;;;1.20;;
68858;SDS011;55864;49.238;8.092;2023-02-27T12:38:31;3.60;;;1.27;;
68858;SDS011;55864;49.238;8.092;2023-02-27T12:40:35;3.10;;;1.27;;
68858;SDS011;55864;49.238;8.092;2023-02-27T12:42:42;3.73;;;1.50;;
68858;SDS011;55864;49.238;8.092;2023-02-27T12:45:10;4.00;;;1.30;;
68858;SDS011;55864;49.238;8.092;2023-02-27T12:47:22;4.23;;;1.20;;